sensor_id;sensor_type;location;lat;lon;timestamp;noise_LAeq;noise_LA_min;noise_LA_max;noise_LA01;noise_LA95
57092;Laerm;42968;52.094;4.328;2023-05-10T00:01:00;59.60;37.70;79.45;;
57092;Laerm;42968;52.094;4.328;2023-05-10T00:03:25;48.48;38.52;62.83;;
57092;Laerm;42968;52.094;4.328;2023-05-10T00:05:51;56.85;38.37;73.17;;
57092;Laerm;42968;52.094;4.328;2023-05-10T00:08:16;53.48;38.05;69.24;;
57092;Laerm;42968;52.094;4.328;2023-05-10T00:10:41;60.82;39.46;74.50;;
57092;Laerm;42968;52.094;4.328;2023-05-10T00:13:07;41.63;38.05;55.63;;
57092;Laerm;42968;52.094;4.328;2023-05-10T00:15:32;57.59;37.52;78.74;;
57092;Laerm;42968;52.094;4.328;2023-05-10T00:17:57;42.86;37.88;50.28;;
57092;Laerm;42968;52.094;4.328;2023-05-10T00:20:22;53.18;37.32;68.73;;
57092;Laerm;42968;52.094;4.328;2023-05-10T00:22:48;41.03;37.70;45.01;;
57092;Laerm;42968;52.094;4.328;2023-05-10T00:25:13;41.42;37.70;51.39;;
57092;Laerm;42968;52.094;4.328;2023-05-10T00:27:38;41.04;37.52;43.19;;
57092;Laerm;42968;52.094;4.328;2023-05-10T00:30:04;66.36;38.47;81.90;;
57092;Laerm;42968;52.094;4.328;2023-05-10T00:32:29;57.88;38.02;75.94;;
57092;Laerm;42968;52.094;4.328;2023-05-10T00:34:54;40.95;37.12;42.88;;
57092;Laerm;42968;52.094;4.328;2023-05-10T00:37:20;42.13;38.05;45.30;;
57092;Laerm;42968;52.094;4.328;2023-05-10T00:39:45;54.48;37.70;70.37;;
57092;Laerm;42968;52.094;4.328;2023-05-10T00:42:10;41.24;37.88;49.43;;
57092;Laerm;42968;52.094;4.328;2023-05-10T00:44:36;40.90;37.52;46.50;;
57092;Laerm;42968;52.094;4.328;2023-05-10T00:47:01;54.14;37.88;71.65;;
57092;Laerm;42968;52.094;4.328;2023-05-10T00:49:27;58.20;37.88;74.75;;
57092;Laerm;42968;52.094;4.328;2023-05-10T00:51:53;56.56;38.95;69.72;;
57092;Laerm;42968;52.094;4.328;2023-05-10T00:54:18;42.82;38.67;50.45;;
57092;Laerm;42968;52.094;4.328;2023-05-10T00:56:44;52.73;38.21;69.14;;
57092;Laerm;42968;52.094;4.328;2023-05-10T00:59:14;55.00;38.05;75.57;;
57092;Laerm;42968;52.094;4.328;2023-05-10T01:01:39;43.33;37.70;57.58;;
57092;Laerm;42968;52.094;4.328;2023-05-10T01:04:04;51.95;37.88;71.40;;
57092;Laerm;42968;52.094;4.328;2023-05-10T01:06:30;41.38;38.21;43.05;;
57092;Laerm;42968;52.094;4.328;2023-05-10T01:08:56;54.16;38.81;67.03;;
57092;Laerm;42968;52.094;4.328;2023-05-10T01:11:21;42.16;37.70;46.13;;
57092;Laerm;42968;52.094;4.328;2023-05-10T01:13:47;41.67;37.70;49.57;;
57092;Laerm;42968;52.094;4.328;2023-05-10T01:16:17;52.07;38.18;67.95;;
57092;Laerm;42968;52.094;4.328;2023-05-10T01:18:42;57.44;37.70;75.76;;
57092;Laerm;42968;52.094;4.328;2023-05-10T01:23:59;54.98;38.37;71.92;;
57092;Laerm;42968;52.094;4.328;2023-05-10T01:29:23;54.42;37.12;71.50;;
57092;Laerm;42968;52.094;4.328;2023-05-10T01:34:23;41.33;37.88;46.13;;
57092;Laerm;42968;52.094;4.328;2023-05-10T01:37:03;41.22;36.91;42.98;;
57092;Laerm;42968;52.094;4.328;2023-05-10T01:39:44;41.82;37.32;54.71;;
57092;Laerm;42968;52.094;4.328;2023-05-10T01:42:10;50.04;37.70;65.31;;
57092;Laerm;42968;52.094;4.328;2023-05-10T01:44:39;54.31;38.21;74.25;;
57092;Laerm;42968;52.094;4.328;2023-05-10T01:47:09;41.20;37.32;47.54;;
57092;Laerm;42968;52.094;4.328;2023-05-10T01:49:37;41.81;36.20;58.55;;
57092;Laerm;42968;52.094;4.328;2023-05-10T01:52:12;55.99;37.32;71.23;;
57092;Laerm;42968;52.094;4.328;2023-05-10T01:55:13;41.45;36.69;49.03;;
57092;Laerm;42968;52.094;4.328;2023-05-10T01:57:31;42.85;37.52;51.49;;
57092;Laerm;42968;52.094;4.328;2023-05-10T01:59:57;52.07;38.05;68.39;;
57092;Laerm;42968;52.094;4.328;2023-05-10T02:02:24;49.55;38.21;64.29;;
57092;Laerm;42968;52.094;4.328;2023-05-10T02:04:51;53.39;37.12;70.93;;
57092;Laerm;42968;52.094;4.328;2023-05-10T02:07:18;41.09;37.32;43.77;;
57092;Laerm;42968;52.094;4.328;2023-05-10T02:09:44;57.08;37.88;71.95;;
57092;Laerm;42968;52.094;4.328;2023-05-10T02:12:13;42.65;37.12;52.51;;
57092;Laerm;42968;52.094;4.328;2023-05-10T02:14:39;49.35;37.12;63.40;;
57092;Laerm;42968;52.094;4.328;2023-05-10T02:17:06;41.21;35.36;43.54;;
57092;Laerm;42968;52.094;4.328;2023-05-10T02:19:32;41.78;35.04;49.67;;
57092;Laerm;42968;52.094;4.328;2023-05-10T02:21:59;52.57;36.91;69.45;;
57092;Laerm;42968;52.094;4.328;2023-05-10T02:24:25;41.98;37.12;49.53;;
57092;Laerm;42968;52.094;4.328;2023-05-10T02:26:51;53.92;37.70;68.23;;
57092;Laerm;42968;52.094;4.328;2023-05-10T02:29:19;48.67;37.88;66.06;;
57092;Laerm;42968;52.094;4.328;2023-05-10T02:31:45;55.69;38.05;71.88;;
57092;Laerm;42968;52.094;4.328;2023-05-10T02:34:10;57.95;38.37;77.50;;
57092;Laerm;42968;52.094;4.328;2023-05-10T02:36:37;50.95;37.32;69.62;;
57092;Laerm;42968;52.094;4.328;2023-05-10T02:39:03;57.23;37.52;70.11;;
57092;Laerm;42968;52.094;4.328;2023-05-10T02:41:30;56.78;39.70;72.15;;
57092;Laerm;42968;52.094;4.328;2023-05-10T02:43:56;57.59;38.05;76.86;;
57092;Laerm;42968;52.094;4.328;2023-05-10T02:46:22;56.98;38.21;71.50;;
57092;Laerm;42968;52.094;4.328;2023-05-10T02:48:48;55.56;38.21;73.23;;
57092;Laerm;42968;52.094;4.328;2023-05-10T02:51:13;60.53;38.52;76.47;;
57092;Laerm;42968;52.094;4.328;2023-05-10T02:53:42;58.82;37.52;75.27;;
57092;Laerm;42968;52.094;4.328;2023-05-10T02:56:13;57.85;37.70;71.95;;
57092;Laerm;42968;52.094;4.328;2023-05-10T02:58:40;41.89;37.52;56.40;;
57092;Laerm;42968;52.094;4.328;2023-05-10T03:01:05;58.26;38.21;73.51;;
57092;Laerm;42968;52.094;4.328;2023-05-10T03:03:32;54.17;37.12;73.14;;
57092;Laerm;42968;52.094;4.328;2023-05-10T03:05:58;54.74;38.60;71.46;;
57092;Laerm;42968;52.094;4.328;2023-05-10T03:08:23;58.56;38.21;75.52;;
57092;Laerm;42968;52.094;4.328;2023-05-10T03:13:42;58.36;38.81;75.94;;
57092;Laerm;42968;52.094;4.328;2023-05-10T03:16:13;63.94;44.76;77.03;;
57092;Laerm;42968;52.094;4.328;2023-05-10T03:18:44;65.51;44.62;82.14;;
57092;Laerm;42968;52.094;4.328;2023-05-10T03:21:13;51.18;39.34;72.59;;
57092;Laerm;42968;52.094;4.328;2023-05-10T03:23:43;60.87;40.71;76.03;;
57092;Laerm;42968;52.094;4.328;2023-05-10T03:26:09;61.57;40.45;75.71;;
57092;Laerm;42968;52.094;4.328;2023-05-10T03:28:35;62.76;40.89;76.47;;
57092;Laerm;42968;52.094;4.328;2023-05-10T03:31:01;64.81;43.55;79.55;;
57092;Laerm;42968;52.094;4.328;2023-05-10T03:33:27;64.26;41.22;80.44;;
57092;Laerm;42968;52.094;4.328;2023-05-10T03:35:52;64.64;41.68;76.73;;
57092;Laerm;42968;52.094;4.328;2023-05-10T03:38:18;65.27;43.04;79.35;;
57092;Laerm;42968;52.094;4.328;2023-05-10T03:40:43;60.39;41.68;76.94;;
57092;Laerm;42968;52.094;4.328;2023-05-10T03:43:08;66.15;42.71;84.50;;
57092;Laerm;42968;52.094;4.328;2023-05-10T03:45:33;70.42;45.30;89.95;;
57092;Laerm;42968;52.094;4.328;2023-05-10T03:47:59;65.40;42.98;76.23;;
57092;Laerm;42968;52.094;4.328;2023-05-10T03:50:24;65.68;40.89;81.58;;
57092;Laerm;42968;52.094;4.328;2023-05-10T03:52:50;64.10;40.89;81.73;;
57092;Laerm;42968;52.094;4.328;2023-05-10T03:55:15;66.75;46.93;83.76;;
57092;Laerm;42968;52.094;4.328;2023-05-10T03:57:41;67.52;47.74;82.82;;
57092;Laerm;42968;52.094;4.328;2023-05-10T04:00:06;68.18;43.90;83.15;;
57092;Laerm;42968;52.094;4.328;2023-05-10T04:02:32;65.28;46.66;77.79;;
57092;Laerm;42968;52.094;4.328;2023-05-10T04:04:57;66.30;45.73;78.22;;
57092;Laerm;42968;52.094;4.328;2023-05-10T04:07:22;66.74;41.82;78.93;;
57092;Laerm;42968;52.094;4.328;2023-05-10T04:09:48;66.19;40.80;80.05;;
57092;Laerm;42968;52.094;4.328;2023-05-10T04:12:13;66.47;43.09;77.55;;
57092;Laerm;42968;52.094;4.328;2023-05-10T04:14:38;68.22;44.39;77.53;;
57092;Laerm;42968;52.094;4.328;2023-05-10T04:17:03;65.97;43.94;77.21;;
57092;Laerm;42968;52.094;4.328;2023-05-10T04:19:29;68.04;44.07;78.14;;
57092;Laerm;42968;52.094;4.328;2023-05-10T04:21:55;67.42;44.35;78.91;;
57092;Laerm;42968;52.094;4.328;2023-05-10T04:24:20;66.96;44.03;78.34;;
57092;Laerm;42968;52.094;4.328;2023-05-10T04:26:45;67.81;43.29;78.72;;
57092;Laerm;42968;52.094;4.328;2023-05-10T04:29:11;68.55;45.23;80.02;;
57092;Laerm;42968;52.094;4.328;2023-05-10T04:31:36;69.05;45.99;83.06;;
57092;Laerm;42968;52.094;4.328;2023-05-10T04:34:01;69.39;45.86;83.64;;
57092;Laerm;42968;52.094;4.328;2023-05-10T04:36:27;68.37;46.41;79.05;;
57092;Laerm;42968;52.094;4.328;2023-05-10T04:38:52;68.50;47.42;79.92;;
57092;Laerm;42968;52.094;4.328;2023-05-10T04:41:18;69.40;46.13;80.45;;
57092;Laerm;42968;52.094;4.328;2023-05-10T04:43:43;70.33;48.18;79.90;;
57092;Laerm;42968;52.094;4.328;2023-05-10T04:46:08;69.63;50.68;77.15;;
57092;Laerm;42968;52.094;4.328;2023-05-10T04:48:33;71.89;49.19;88.86;;
57092;Laerm;42968;52.094;4.328;2023-05-10T04:50:59;69.96;55.12;80.41;;
57092;Laerm;42968;52.094;4.328;2023-05-10T04:53:24;70.96;48.36;83.05;;
57092;Laerm;42968;52.094;4.328;2023-05-10T04:55:50;71.13;48.28;84.05;;
57092;Laerm;42968;52.094;4.328;2023-05-10T04:58:15;71.55;51.50;85.52;;
57092;Laerm;42968;52.094;4.328;2023-05-10T05:00:41;70.99;56.45;85.34;;
57092;Laerm;42968;52.094;4.328;2023-05-10T05:03:07;70.49;51.37;82.05;;
57092;Laerm;42968;52.094;4.328;2023-05-10T05:05:32;71.71;50.39;81.20;;
57092;Laerm;42968;52.094;4.328;2023-05-10T05:07:57;70.55;51.94;76.72;;
57092;Laerm;42968;52.094;4.328;2023-05-10T05:10:22;69.61;48.74;78.71;;
57092;Laerm;42968;52.094;4.328;2023-05-10T05:12:48;72.80;52.19;83.24;;
57092;Laerm;42968;52.094;4.328;2023-05-10T05:15:13;73.03;51.83;84.22;;
57092;Laerm;42968;52.094;4.328;2023-05-10T05:17:40;70.95;52.66;82.55;;
57092;Laerm;42968;52.094;4.328;2023-05-10T05:20:05;72.88;51.44;82.67;;
57092;Laerm;42968;52.094;4.328;2023-05-10T05:22:31;73.18;52.92;82.41;;
57092;Laerm;42968;52.094;4.328;2023-05-10T05:24:56;70.69;54.98;82.37;;
57092;Laerm;42968;52.094;4.328;2023-05-10T05:27:23;70.74;50.55;80.11;;
57092;Laerm;42968;52.094;4.328;2023-05-10T05:29:55;71.38;52.48;83.10;;
57092;Laerm;42968;52.094;4.328;2023-05-10T05:32:21;71.87;53.42;80.83;;
57092;Laerm;42968;52.094;4.328;2023-05-10T05:34:47;72.46;53.86;80.41;;
57092;Laerm;42968;52.094;4.328;2023-05-10T05:37:15;72.75;58.56;82.57;;
57092;Laerm;42968;52.094;4.328;2023-05-10T05:39:41;84.04;61.59;105.73;;
57092;Laerm;42968;52.094;4.328;2023-05-10T05:42:07;70.78;57.52;83.79;;
57092;Laerm;42968;52.094;4.328;2023-05-10T05:44:32;72.55;62.14;78.89;;
57092;Laerm;42968;52.094;4.328;2023-05-10T05:46:58;71.85;56.91;93.84;;
57092;Laerm;42968;52.094;4.328;2023-05-10T05:49:23;73.01;59.88;82.07;;
57092;Laerm;42968;52.094;4.328;2023-05-10T05:51:48;72.82;60.62;80.09;;
57092;Laerm;42968;52.094;4.328;2023-05-10T05:54:15;72.91;56.41;81.85;;
57092;Laerm;42968;52.094;4.328;2023-05-10T05:56:40;72.26;53.78;80.41;;
57092;Laerm;42968;52.094;4.328;2023-05-10T05:59:06;71.63;51.17;79.36;;
57092;Laerm;42968;52.094;4.328;2023-05-10T06:01:34;73.92;56.20;85.25;;
57092;Laerm;42968;52.094;4.328;2023-05-10T06:03:59;71.84;49.02;80.23;;
57092;Laerm;42968;52.094;4.328;2023-05-10T06:06:25;73.18;62.81;81.79;;
57092;Laerm;42968;52.094;4.328;2023-05-10T06:08:50;71.72;59.50;80.16;;
57092;Laerm;42968;52.094;4.328;2023-05-10T06:11:16;72.20;58.67;79.75;;
57092;Laerm;42968;52.094;4.328;2023-05-10T06:13:41;73.19;52.78;81.72;;
57092;Laerm;42968;52.094;4.328;2023-05-10T06:16:07;72.03;52.73;80.64;;
57092;Laerm;42968;52.094;4.328;2023-05-10T06:18:32;71.82;59.01;79.34;;
57092;Laerm;42968;52.094;4.328;2023-05-10T06:20:58;72.88;57.09;80.42;;
57092;Laerm;42968;52.094;4.328;2023-05-10T06:23:23;71.72;55.61;81.18;;
57092;Laerm;42968;52.094;4.328;2023-05-10T06:25:50;73.93;54.33;83.56;;
57092;Laerm;42968;52.094;4.328;2023-05-10T06:28:15;73.39;50.70;82.27;;
57092;Laerm;42968;52.094;4.328;2023-05-10T06:30:41;73.03;52.11;80.25;;
57092;Laerm;42968;52.094;4.328;2023-05-10T06:33:06;73.68;53.37;83.00;;
57092;Laerm;42968;52.094;4.328;2023-05-10T06:35:31;71.49;55.80;84.02;;
57092;Laerm;42968;52.094;4.328;2023-05-10T06:37:58;71.49;54.99;79.95;;
57092;Laerm;42968;52.094;4.328;2023-05-10T06:40:23;72.85;58.48;79.63;;
57092;Laerm;42968;52.094;4.328;2023-05-10T06:42:49;74.34;59.36;86.47;;
57092;Laerm;42968;52.094;4.328;2023-05-10T06:45:14;72.19;60.48;91.14;;
57092;Laerm;42968;52.094;4.328;2023-05-10T06:47:40;72.41;52.02;79.97;;
57092;Laerm;42968;52.094;4.328;2023-05-10T06:50:07;71.75;57.57;79.95;;
57092;Laerm;42968;52.094;4.328;2023-05-10T06:52:32;72.13;57.74;81.59;;
57092;Laerm;42968;52.094;4.328;2023-05-10T06:54:57;71.20;46.62;79.80;;
57092;Laerm;42968;52.094;4.328;2023-05-10T06:57:22;70.41;55.61;77.49;;
57092;Laerm;42968;52.094;4.328;2023-05-10T06:59:48;72.05;57.00;82.49;;
57092;Laerm;42968;52.094;4.328;2023-05-10T07:02:13;71.78;55.84;86.90;;
57092;Laerm;42968;52.094;4.328;2023-05-10T07:04:39;72.09;56.81;83.16;;
57092;Laerm;42968;52.094;4.328;2023-05-10T07:07:05;72.58;49.70;82.00;;
57092;Laerm;42968;52.094;4.328;2023-05-10T07:09:30;72.79;52.01;86.33;;
57092;Laerm;42968;52.094;4.328;2023-05-10T07:11:55;72.92;52.24;81.88;;
57092;Laerm;42968;52.094;4.328;2023-05-10T07:14:22;71.18;50.68;79.38;;
57092;Laerm;42968;52.094;4.328;2023-05-10T07:16:47;71.33;50.43;81.68;;
57092;Laerm;42968;52.094;4.328;2023-05-10T07:19:12;72.61;52.16;82.42;;
57092;Laerm;42968;52.094;4.328;2023-05-10T07:21:37;71.27;53.12;79.69;;
57092;Laerm;42968;52.094;4.328;2023-05-10T07:24:05;71.49;60.23;79.59;;
57092;Laerm;42968;52.094;4.328;2023-05-10T07:26:30;70.30;51.14;80.67;;
57092;Laerm;42968;52.094;4.328;2023-05-10T07:28:56;71.61;53.96;78.93;;
57092;Laerm;42968;52.094;4.328;2023-05-10T07:31:21;69.88;48.48;79.21;;
57092;Laerm;42968;52.094;4.328;2023-05-10T07:33:46;68.76;52.59;77.60;;
57092;Laerm;42968;52.094;4.328;2023-05-10T07:36:12;70.64;52.42;77.98;;
57092;Laerm;42968;52.094;4.328;2023-05-10T07:38:37;71.47;55.52;82.27;;
57092;Laerm;42968;52.094;4.328;2023-05-10T07:41:03;71.15;50.12;82.17;;
57092;Laerm;42968;52.094;4.328;2023-05-10T07:43:28;70.17;47.24;78.47;;
57092;Laerm;42968;52.094;4.328;2023-05-10T07:45:53;71.24;56.94;82.44;;
57092;Laerm;42968;52.094;4.328;2023-05-10T07:48:18;70.22;52.92;82.06;;
57092;Laerm;42968;52.094;4.328;2023-05-10T07:50:44;72.30;50.34;81.08;;
57092;Laerm;42968;52.094;4.328;2023-05-10T07:53:09;71.26;49.65;80.99;;
57092;Laerm;42968;52.094;4.328;2023-05-10T07:55:34;69.74;52.03;79.12;;
57092;Laerm;42968;52.094;4.328;2023-05-10T07:58:00;71.37;51.26;82.68;;
57092;Laerm;42968;52.094;4.328;2023-05-10T08:00:26;72.11;54.61;79.44;;
57092;Laerm;42968;52.094;4.328;2023-05-10T08:02:51;69.36;47.88;78.41;;
57092;Laerm;42968;52.094;4.328;2023-05-10T08:05:16;70.04;49.00;78.73;;
57092;Laerm;42968;52.094;4.328;2023-05-10T08:07:42;70.70;53.10;83.06;;
57092;Laerm;42968;52.094;4.328;2023-05-10T08:10:08;70.26;46.95;79.57;;
57092;Laerm;42968;52.094;4.328;2023-05-10T08:12:33;70.30;49.39;77.44;;
57092;Laerm;42968;52.094;4.328;2023-05-10T08:14:59;69.45;50.91;78.48;;
57092;Laerm;42968;52.094;4.328;2023-05-10T08:17:24;70.41;53.44;81.03;;
57092;Laerm;42968;52.094;4.328;2023-05-10T08:19:49;70.86;53.43;80.93;;
57092;Laerm;42968;52.094;4.328;2023-05-10T08:22:15;69.95;52.98;79.03;;
57092;Laerm;42968;52.094;4.328;2023-05-10T08:24:40;69.80;56.76;79.01;;
57092;Laerm;42968;52.094;4.328;2023-05-10T08:27:07;68.79;47.65;77.47;;
57092;Laerm;42968;52.094;4.328;2023-05-10T08:29:32;69.41;53.92;79.21;;
57092;Laerm;42968;52.094;4.328;2023-05-10T08:31:57;70.74;52.02;82.58;;
57092;Laerm;42968;52.094;4.328;2023-05-10T08:34:23;70.37;54.12;84.31;;
57092;Laerm;42968;52.094;4.328;2023-05-10T08:36:48;70.12;48.05;79.89;;
57092;Laerm;42968;52.094;4.328;2023-05-10T08:39:13;85.43;51.80;106.32;;
57092;Laerm;42968;52.094;4.328;2023-05-10T08:41:39;70.85;53.50;81.03;;
57092;Laerm;42968;52.094;4.328;2023-05-10T08:44:05;71.47;48.94;78.11;;
57092;Laerm;42968;52.094;4.328;2023-05-10T08:46:33;68.69;50.68;78.81;;
57092;Laerm;42968;52.094;4.328;2023-05-10T08:49:00;69.73;47.16;78.00;;
57092;Laerm;42968;52.094;4.328;2023-05-10T08:51:27;70.33;56.90;79.85;;
57092;Laerm;42968;52.094;4.328;2023-05-10T08:53:57;70.33;53.97;79.22;;
57092;Laerm;42968;52.094;4.328;2023-05-10T08:56:22;71.15;52.56;81.24;;
57092;Laerm;42968;52.094;4.328;2023-05-10T08:58:48;70.16;52.97;80.16;;
57092;Laerm;42968;52.094;4.328;2023-05-10T09:01:14;69.42;50.43;78.31;;
57092;Laerm;42968;52.094;4.328;2023-05-10T09:03:41;69.73;49.70;78.91;;
57092;Laerm;42968;52.094;4.328;2023-05-10T09:06:06;70.09;48.48;80.83;;
57092;Laerm;42968;52.094;4.328;2023-05-10T09:08:32;70.68;56.74;87.34;;
57092;Laerm;42968;52.094;4.328;2023-05-10T09:10:58;70.58;49.39;83.41;;
57092;Laerm;42968;52.094;4.328;2023-05-10T09:13:26;71.12;53.49;83.70;;
57092;Laerm;42968;52.094;4.328;2023-05-10T09:15:52;69.65;56.94;79.46;;
57092;Laerm;42968;52.094;4.328;2023-05-10T09:18:17;70.68;55.91;78.76;;
57092;Laerm;42968;52.094;4.328;2023-05-10T09:20:43;69.82;55.54;78.99;;
57092;Laerm;42968;52.094;4.328;2023-05-10T09:23:08;70.56;53.21;79.49;;
57092;Laerm;42968;52.094;4.328;2023-05-10T09:25:34;69.81;50.73;78.11;;
57092;Laerm;42968;52.094;4.328;2023-05-10T09:28:00;70.61;49.12;78.20;;
57092;Laerm;42968;52.094;4.328;2023-05-10T09:30:26;69.55;48.31;77.42;;
57092;Laerm;42968;52.094;4.328;2023-05-10T09:32:51;71.28;56.54;82.03;;
57092;Laerm;42968;52.094;4.328;2023-05-10T09:35:18;69.89;51.28;77.78;;
57092;Laerm;42968;52.094;4.328;2023-05-10T09:37:46;71.18;52.06;85.76;;
57092;Laerm;42968;52.094;4.328;2023-05-10T09:40:13;71.62;47.67;85.90;;
57092;Laerm;42968;52.094;4.328;2023-05-10T09:42:41;71.50;55.65;81.33;;
57092;Laerm;42968;52.094;4.328;2023-05-10T09:45:07;70.39;52.57;79.17;;
57092;Laerm;42968;52.094;4.328;2023-05-10T09:47:33;70.07;50.81;78.67;;
57092;Laerm;42968;52.094;4.328;2023-05-10T09:49:58;71.43;52.66;80.20;;
57092;Laerm;42968;52.094;4.328;2023-05-10T09:52:28;71.23;51.74;81.76;;
57092;Laerm;42968;52.094;4.328;2023-05-10T09:54:53;71.09;49.62;84.47;;
57092;Laerm;42968;52.094;4.328;2023-05-10T09:57:22;70.44;52.50;81.66;;
57092;Laerm;42968;52.094;4.328;2023-05-10T09:59:48;69.44;51.22;81.57;;
57092;Laerm;42968;52.094;4.328;2023-05-10T10:02:14;69.77;48.20;78.48;;
57092;Laerm;42968;52.094;4.328;2023-05-10T10:04:40;71.15;51.69;78.76;;
57092;Laerm;42968;52.094;4.328;2023-05-10T10:07:05;70.13;54.34;76.67;;
57092;Laerm;42968;52.094;4.328;2023-05-10T10:09:31;70.96;56.71;84.95;;
57092;Laerm;42968;52.094;4.328;2023-05-10T10:11:56;71.56;60.59;82.90;;
57092;Laerm;42968;52.094;4.328;2023-05-10T10:14:22;71.03;56.25;79.72;;
57092;Laerm;42968;52.094;4.328;2023-05-10T10:16:49;70.08;46.40;81.41;;
57092;Laerm;42968;52.094;4.328;2023-05-10T10:19:14;70.40;55.50;87.55;;
57092;Laerm;42968;52.094;4.328;2023-05-10T10:21:40;69.95;53.56;78.97;;
57092;Laerm;42968;52.094;4.328;2023-05-10T10:24:05;75.02;55.08;93.22;;
57092;Laerm;42968;52.094;4.328;2023-05-10T10:26:33;71.10;50.16;80.53;;
57092;Laerm;42968;52.094;4.328;2023-05-10T10:29:03;71.28;50.90;80.19;;
57092;Laerm;42968;52.094;4.328;2023-05-10T10:31:36;69.66;49.21;82.86;;
57092;Laerm;42968;52.094;4.328;2023-05-10T10:36:29;71.61;55.80;79.28;;
57092;Laerm;42968;52.094;4.328;2023-05-10T10:38:58;69.80;48.66;79.18;;
57092;Laerm;42968;52.094;4.328;2023-05-10T10:41:27;69.96;55.23;77.02;;
57092;Laerm;42968;52.094;4.328;2023-05-10T10:46:57;69.89;60.61;76.91;;
57092;Laerm;42968;52.094;4.328;2023-05-10T10:49:22;70.39;58.27;79.26;;
57092;Laerm;42968;52.094;4.328;2023-05-10T10:54:32;70.28;51.34;79.31;;
57092;Laerm;42968;52.094;4.328;2023-05-10T10:57:31;70.55;46.97;78.29;;
57092;Laerm;42968;52.094;4.328;2023-05-10T10:59:51;68.91;51.75;82.33;;
57092;Laerm;42968;52.094;4.328;2023-05-10T11:02:32;71.37;58.47;86.50;;
57092;Laerm;42968;52.094;4.328;2023-05-10T11:04:57;70.48;51.56;77.33;;
57092;Laerm;42968;52.094;4.328;2023-05-10T11:07:23;70.09;48.92;80.93;;
57092;Laerm;42968;52.094;4.328;2023-05-10T11:09:49;69.94;52.46;79.12;;
57092;Laerm;42968;52.094;4.328;2023-05-10T11:12:14;70.93;49.43;80.82;;
57092;Laerm;42968;52.094;4.328;2023-05-10T11:14:40;70.95;51.62;82.49;;
57092;Laerm;42968;52.094;4.328;2023-05-10T11:22:55;71.08;51.95;87.30;;
57092;Laerm;42968;52.094;4.328;2023-05-10T11:25:20;70.93;54.24;81.58;;
57092;Laerm;42968;52.094;4.328;2023-05-10T11:27:46;69.81;54.66;80.44;;
57092;Laerm;42968;52.094;4.328;2023-05-10T11:30:12;70.44;53.44;82.78;;
57092;Laerm;42968;52.094;4.328;2023-05-10T11:32:39;69.97;53.20;79.70;;
57092;Laerm;42968;52.094;4.328;2023-05-10T11:35:08;71.07;53.85;83.36;;
57092;Laerm;42968;52.094;4.328;2023-05-10T11:37:33;71.00;55.98;78.92;;
57092;Laerm;42968;52.094;4.328;2023-05-10T11:39:59;71.10;47.86;81.11;;
57092;Laerm;42968;52.094;4.328;2023-05-10T11:42:24;69.87;51.52;80.42;;
57092;Laerm;42968;52.094;4.328;2023-05-10T11:44:50;70.85;56.93;79.63;;
57092;Laerm;42968;52.094;4.328;2023-05-10T11:47:15;68.14;48.66;78.67;;
57092;Laerm;42968;52.094;4.328;2023-05-10T11:49:43;69.71;48.54;78.52;;
57092;Laerm;42968;52.094;4.328;2023-05-10T11:52:08;71.96;56.84;79.97;;
57092;Laerm;42968;52.094;4.328;2023-05-10T11:54:34;70.47;53.83;79.55;;
57092;Laerm;42968;52.094;4.328;2023-05-10T11:57:02;69.73;52.79;80.87;;
57092;Laerm;42968;52.094;4.328;2023-05-10T11:59:27;71.18;59.46;79.02;;
57092;Laerm;42968;52.094;4.328;2023-05-10T12:01:52;70.64;52.24;84.28;;
57092;Laerm;42968;52.094;4.328;2023-05-10T12:04:18;70.40;56.17;78.56;;
57092;Laerm;42968;52.094;4.328;2023-05-10T12:06:43;70.62;51.84;78.98;;
57092;Laerm;42968;52.094;4.328;2023-05-10T12:09:10;71.41;58.83;81.19;;
57092;Laerm;42968;52.094;4.328;2023-05-10T12:11:39;71.92;60.42;86.46;;
57092;Laerm;42968;52.094;4.328;2023-05-10T12:14:05;70.26;52.64;81.12;;
57092;Laerm;42968;52.094;4.328;2023-05-10T12:16:30;71.28;50.19;79.46;;
57092;Laerm;42968;52.094;4.328;2023-05-10T12:18:57;70.04;48.60;80.19;;
57092;Laerm;42968;52.094;4.328;2023-05-10T12:21:23;71.42;54.23;80.27;;
57092;Laerm;42968;52.094;4.328;2023-05-10T12:23:56;71.76;50.89;79.18;;
57092;Laerm;42968;52.094;4.328;2023-05-10T12:26:24;70.95;55.18;83.78;;
57092;Laerm;42968;52.094;4.328;2023-05-10T12:28:51;69.41;53.94;77.04;;
57092;Laerm;42968;52.094;4.328;2023-05-10T12:31:16;69.21;56.54;77.79;;
57092;Laerm;42968;52.094;4.328;2023-05-10T12:33:42;70.53;59.97;80.94;;
57092;Laerm;42968;52.094;4.328;2023-05-10T12:36:08;69.35;54.23;79.97;;
57092;Laerm;42968;52.094;4.328;2023-05-10T12:38:40;70.85;50.97;79.84;;
57092;Laerm;42968;52.094;4.328;2023-05-10T12:41:11;71.49;54.55;80.99;;
57092;Laerm;42968;52.094;4.328;2023-05-10T12:43:37;68.77;49.82;78.41;;
57092;Laerm;42968;52.094;4.328;2023-05-10T12:46:08;70.14;53.94;78.92;;
57092;Laerm;42968;52.094;4.328;2023-05-10T12:48:34;70.89;50.92;83.82;;
57092;Laerm;42968;52.094;4.328;2023-05-10T12:51:01;70.99;50.29;80.23;;
57092;Laerm;42968;52.094;4.328;2023-05-10T12:53:26;71.08;51.56;79.53;;
57092;Laerm;42968;52.094;4.328;2023-05-10T12:55:51;70.71;51.18;77.90;;
57092;Laerm;42968;52.094;4.328;2023-05-10T12:58:17;70.98;51.69;78.03;;
57092;Laerm;42968;52.094;4.328;2023-05-10T13:00:42;71.23;53.39;81.53;;
57092;Laerm;42968;52.094;4.328;2023-05-10T13:03:08;71.54;52.69;82.41;;
57092;Laerm;42968;52.094;4.328;2023-05-10T13:05:34;70.78;51.01;81.80;;
57092;Laerm;42968;52.094;4.328;2023-05-10T13:07:59;70.34;56.79;77.17;;
57092;Laerm;42968;52.094;4.328;2023-05-10T13:10:24;71.66;53.56;79.49;;
57092;Laerm;42968;52.094;4.328;2023-05-10T13:12:50;72.37;50.94;79.69;;
57092;Laerm;42968;52.094;4.328;2023-05-10T13:15:15;69.54;48.81;76.35;;
57092;Laerm;42968;52.094;4.328;2023-05-10T13:17:40;72.14;54.28;81.82;;
57092;Laerm;42968;52.094;4.328;2023-05-10T13:20:07;70.17;46.84;80.71;;
57092;Laerm;42968;52.094;4.328;2023-05-10T13:22:32;70.47;50.54;82.75;;
57092;Laerm;42968;52.094;4.328;2023-05-10T13:24:58;70.38;55.07;77.82;;
57092;Laerm;42968;52.094;4.328;2023-05-10T13:27:23;71.61;55.68;80.83;;
57092;Laerm;42968;52.094;4.328;2023-05-10T13:29:48;71.58;56.15;82.56;;
57092;Laerm;42968;52.094;4.328;2023-05-10T13:32:14;70.79;55.93;81.80;;
57092;Laerm;42968;52.094;4.328;2023-05-10T13:34:39;68.90;49.38;75.35;;
57092;Laerm;42968;52.094;4.328;2023-05-10T13:37:04;72.41;51.16;87.08;;
57092;Laerm;42968;52.094;4.328;2023-05-10T13:39:29;70.13;57.66;80.83;;
57092;Laerm;42968;52.094;4.328;2023-05-10T13:41:58;69.72;53.87;76.41;;
57092;Laerm;42968;52.094;4.328;2023-05-10T13:44:23;69.33;56.55;80.97;;
57092;Laerm;42968;52.094;4.328;2023-05-10T13:46:48;72.08;57.96;79.70;;
57092;Laerm;42968;52.094;4.328;2023-05-10T13:49:14;69.86;54.14;78.61;;
57092;Laerm;42968;52.094;4.328;2023-05-10T13:51:39;70.87;56.56;79.96;;
57092;Laerm;42968;52.094;4.328;2023-05-10T13:54:05;71.75;51.84;78.17;;
57092;Laerm;42968;52.094;4.328;2023-05-10T13:56:30;71.95;48.71;83.03;;
57092;Laerm;42968;52.094;4.328;2023-05-10T13:58:56;70.47;54.71;77.73;;
57092;Laerm;42968;52.094;4.328;2023-05-10T14:01:22;69.90;56.29;79.90;;
57092;Laerm;42968;52.094;4.328;2023-05-10T14:03:47;69.64;57.27;75.70;;